MDSD/SDQ METAR and TAF weather

Enter ICAO airport designator
Station Type Date Time Source
MDSD METAR 2019/06/27 04:00 UTC NOAA

MDSD 270400Z 03005KT 9999 SCT018 25/23 Q1016


Station Type Date Time Source
MDSD Decoded METAR 2019/06/27 04:00 UTC NOAA

Las Americas, Dominican Republic (MDSD) 18-26N 069-40W
Jun 27, 2019 - 12:00 AM EDT / 2019.06.27 0400 UTC
Wind: from the NNE (030 degrees) at 6 MPH (5 KT):0
Visibility: greater than 7 mile(s):0
Sky conditions: partly cloudy
Temperature: 77 F (25 C)
Dew Point: 73 F (23 C)
Relative Humidity: 88%
Pressure (altimeter): 30.00 in. Hg (1016 hPa)
ob: MDSD 270400Z 03005KT 9999 SCT018 25/23 Q1016
cycle: 4

Station Type Date Time Source
MDSD TAF 2019/06/26 18:57 UTC NOAA

TAF MDSD 261600Z 2618/2718 16008KT 9999 FEW020CB SCT022 PROB40
TEMPO 2621/2703 7000 -TSRA FEW016CB BKN018 BKN070
BECMG 2622/2700 03006KT PROB40
TEMPO 2712/2718 7000 -RA FEW016CB BKN018 BKN070

Example: see airport list